createdAt,value
2018-10-05T00:01:52.885Z,2.43
2018-10-05T00:04:26.794Z,3.53
2018-10-05T00:07:00.671Z,4.13
2018-10-05T00:09:34.502Z,3.97
2018-10-05T00:12:08.780Z,3.70
2018-10-05T00:14:42.733Z,3.10
2018-10-05T00:17:16.690Z,3.57
2018-10-05T00:19:50.689Z,3.33
2018-10-05T00:22:24.569Z,3.90
2018-10-05T00:24:58.502Z,3.90
2018-10-05T00:27:32.417Z,3.40
2018-10-05T00:30:06.533Z,5.03
2018-10-05T00:32:40.617Z,3.50
2018-10-05T00:35:14.316Z,3.53
2018-10-05T00:37:48.237Z,4.90
2018-10-05T00:40:22.069Z,4.97
2018-10-05T00:42:55.920Z,5.33
2018-10-05T00:45:29.962Z,3.83
2018-10-05T00:48:03.820Z,1.80
2018-10-05T00:50:37.769Z,2.20
2018-10-05T00:53:11.862Z,2.30
2018-10-05T00:55:45.834Z,4.47
2018-10-05T00:58:20.122Z,6.03
2018-10-05T01:00:54.128Z,3.10
2018-10-05T01:03:28.284Z,2.17
2018-10-05T01:06:02.489Z,3.40
2018-10-05T01:08:36.490Z,4.67
2018-10-05T01:11:10.397Z,4.03
2018-10-05T01:13:44.338Z,2.80
2018-10-05T01:16:18.337Z,3.03
2018-10-05T01:18:52.176Z,3.50
2018-10-05T01:21:26.152Z,1.70
2018-10-05T01:24:00.085Z,3.47
2018-10-05T01:26:34.039Z,1.60
2018-10-05T01:29:07.905Z,2.30
2018-10-05T01:31:41.725Z,2.20
2018-10-05T01:34:15.651Z,2.37
2018-10-05T01:36:49.485Z,1.97
2018-10-05T01:39:23.597Z,1.33
2018-10-05T01:41:57.427Z,4.03
2018-10-05T01:44:31.341Z,4.00
2018-10-05T01:47:05.239Z,3.80
2018-10-05T01:49:39.345Z,2.40
2018-10-05T01:52:13.147Z,3.53
2018-10-05T01:54:47.110Z,3.80
2018-10-05T01:57:21.010Z,3.13
2018-10-05T01:59:55.000Z,5.90
2018-10-05T02:02:29.102Z,5.27
2018-10-05T02:05:04.256Z,3.53
2018-10-05T02:07:38.078Z,5.80
2018-10-05T02:10:13.198Z,1.67
2018-10-05T02:12:47.084Z,2.40
2018-10-05T02:15:21.831Z,2.57
2018-10-05T02:17:56.290Z,6.33
2018-10-05T02:20:30.447Z,1.50
2018-10-05T02:23:04.487Z,4.67
2018-10-05T02:25:38.698Z,3.67
2018-10-05T02:28:24.309Z,3.93
2018-10-05T02:31:00.666Z,3.87
2018-10-05T02:33:42.118Z,3.20
2018-10-05T02:36:16.648Z,5.20
2018-10-05T02:38:51.186Z,3.57
2018-10-05T02:41:25.353Z,2.70
2018-10-05T02:44:00.679Z,2.43
2018-10-05T02:46:48.271Z,3.80
2018-10-05T02:49:24.945Z,4.63
2018-10-05T02:51:59.010Z,2.90
2018-10-05T03:00:59.059Z,4.33
2018-10-05T03:03:53.031Z,5.10
2018-10-05T03:06:30.147Z,2.47
2018-10-05T03:09:06.588Z,4.63
2018-10-05T03:12:00.818Z,6.03
2018-10-05T03:14:35.303Z,5.23
2018-10-05T03:17:10.071Z,3.43
2018-10-05T03:19:48.171Z,2.67
2018-10-05T03:22:25.119Z,4.40
2018-10-05T03:25:28.296Z,3.47
2018-10-05T03:28:09.251Z,3.83
2018-10-05T03:30:51.314Z,3.40
2018-10-05T03:33:44.736Z,2.97
2018-10-05T03:42:04.382Z,3.10
2018-10-05T03:45:05.608Z,2.83
2018-10-05T03:47:44.575Z,3.67
2018-10-05T03:56:30.736Z,3.57
2018-10-05T04:13:35.578Z,3.13
2018-10-05T04:16:09.431Z,2.20
2018-10-05T04:18:43.628Z,2.97
2018-10-05T04:21:17.409Z,0.17
2018-10-05T04:23:51.360Z,2.40
2018-10-05T04:26:25.316Z,3.37
2018-10-05T04:28:59.255Z,2.00
2018-10-05T04:31:33.095Z,3.57
2018-10-05T04:34:06.997Z,1.27
2018-10-05T04:36:40.645Z,0.33
2018-10-05T04:39:14.549Z,3.17
2018-10-05T04:41:48.592Z,3.50
2018-10-05T04:44:22.450Z,3.33
2018-10-05T04:46:56.273Z,5.10
2018-10-05T04:49:30.304Z,3.13
2018-10-05T04:52:04.222Z,1.63
2018-10-05T04:54:38.637Z,2.07
2018-10-05T04:57:12.622Z,2.47
2018-10-05T04:59:47.078Z,2.63
2018-10-05T05:02:21.783Z,2.03
2018-10-05T05:04:59.066Z,1.30
2018-10-05T05:07:32.977Z,2.43
2018-10-05T05:10:14.957Z,2.77
2018-10-05T05:12:50.238Z,2.83
2018-10-05T05:15:26.324Z,2.77
2018-10-05T05:18:00.312Z,3.10
2018-10-05T05:20:34.983Z,2.37
2018-10-05T05:23:10.012Z,1.63
2018-10-05T05:25:46.229Z,3.03
2018-10-05T05:28:22.495Z,2.77
2018-10-05T05:30:57.433Z,1.40
2018-10-05T05:33:31.429Z,5.37
2018-10-05T05:36:05.332Z,3.17
2018-10-05T05:38:39.353Z,4.30
2018-10-05T05:41:14.134Z,2.87
2018-10-05T05:43:48.557Z,4.60
2018-10-05T05:46:23.349Z,2.77
2018-10-05T05:48:57.576Z,4.47
2018-10-05T05:51:31.836Z,1.33
2018-10-05T05:54:05.694Z,3.50
2018-10-05T05:56:40.693Z,4.87
2018-10-05T05:59:15.228Z,1.67
2018-10-05T06:01:49.776Z,1.50
2018-10-05T06:04:24.140Z,2.80
2018-10-05T06:09:36.929Z,4.97
2018-10-05T06:12:10.998Z,1.77
2018-10-05T06:14:45.274Z,4.30
2018-10-05T06:17:21.162Z,3.37
2018-10-05T06:19:55.744Z,2.47
2018-10-05T06:22:29.872Z,5.53
2018-10-05T06:25:03.953Z,2.77
2018-10-05T06:27:38.039Z,2.97
2018-10-05T06:30:12.617Z,2.17
2018-10-05T06:32:46.865Z,2.53
2018-10-05T06:35:21.651Z,3.50
2018-10-05T06:37:55.756Z,3.53
2018-10-05T06:40:30.179Z,2.17
2018-10-05T06:43:04.313Z,2.53
2018-10-05T06:45:38.409Z,2.17
2018-10-05T06:48:12.417Z,3.70
2018-10-05T06:50:46.522Z,3.50
2018-10-05T06:53:20.644Z,4.43
2018-10-05T06:55:54.633Z,4.57
2018-10-05T06:58:28.527Z,5.93
2018-10-05T07:01:02.546Z,5.67
2018-10-05T07:03:36.486Z,3.63
2018-10-05T07:06:10.450Z,3.33
2018-10-05T07:08:45.549Z,3.20
2018-10-05T07:11:19.339Z,3.10
2018-10-05T07:13:53.940Z,2.20
2018-10-05T07:16:27.939Z,3.00
2018-10-05T07:19:02.471Z,3.57
2018-10-05T07:21:36.420Z,2.20
2018-10-05T07:24:10.341Z,2.17
2018-10-05T07:26:44.280Z,4.33
2018-10-05T07:29:18.142Z,4.03
2018-10-05T07:31:52.066Z,4.37
2018-10-05T07:34:26.550Z,3.17
2018-10-05T07:37:01.403Z,3.30
2018-10-05T07:39:36.261Z,2.87
2018-10-05T07:42:10.342Z,4.70
2018-10-05T07:44:44.301Z,2.73
2018-10-05T07:47:18.439Z,3.20
2018-10-05T07:49:52.389Z,6.17
2018-10-05T07:52:26.637Z,4.17
2018-10-05T07:55:01.478Z,3.50
2018-10-05T07:57:36.228Z,3.30
2018-10-05T08:00:11.179Z,3.17
2018-10-05T08:02:46.467Z,4.47
2018-10-05T08:05:20.563Z,3.57
2018-10-05T08:07:54.644Z,4.53
2018-10-05T08:10:28.994Z,2.37
2018-10-05T08:13:03.054Z,5.90
2018-10-05T08:15:37.659Z,2.63
2018-10-05T08:18:11.626Z,3.10
2018-10-05T08:20:46.712Z,5.67
2018-10-05T08:23:21.145Z,4.87
2018-10-05T08:25:55.008Z,4.13
2018-10-05T08:28:29.050Z,4.80
2018-10-05T08:31:03.755Z,3.07
2018-10-05T08:33:37.816Z,2.47
2018-10-05T08:36:12.360Z,4.73
2018-10-05T08:38:46.358Z,5.00
2018-10-05T08:41:20.674Z,5.03
2018-10-05T08:43:54.722Z,5.50
2018-10-05T08:46:28.721Z,4.73
2018-10-05T08:49:02.764Z,6.97
2018-10-05T08:51:36.953Z,4.77
2018-10-05T08:54:10.939Z,5.97
2018-10-05T08:56:45.775Z,6.30
2018-10-05T08:59:21.115Z,6.37
2018-10-05T09:01:55.847Z,7.33
2018-10-05T09:04:30.058Z,5.47
2018-10-05T09:07:05.228Z,5.27
2018-10-05T09:09:39.015Z,4.47
2018-10-05T09:12:13.062Z,6.77
2018-10-05T09:14:46.910Z,6.23
2018-10-05T09:17:20.877Z,8.63
2018-10-05T09:19:55.119Z,7.77
2018-10-05T09:22:29.275Z,5.50
2018-10-05T09:25:03.602Z,5.83
2018-10-05T09:30:17.687Z,9.07
2018-10-05T09:32:52.212Z,7.57
2018-10-05T09:35:26.888Z,4.93
2018-10-05T09:38:01.017Z,5.77
2018-10-05T09:40:34.840Z,7.97
2018-10-05T09:43:08.768Z,4.47
2018-10-05T09:45:43.747Z,7.97
2018-10-05T09:48:17.610Z,8.00
2018-10-05T09:50:52.278Z,8.23
2018-10-05T09:53:26.538Z,5.57
2018-10-05T09:56:00.685Z,7.43
2018-10-05T09:58:35.415Z,7.73
2018-10-05T10:01:14.829Z,24.20
2018-10-05T10:03:48.792Z,7.20
2018-10-05T10:06:23.503Z,4.67
2018-10-05T10:08:58.002Z,5.27
2018-10-05T10:11:32.112Z,7.97
2018-10-05T10:14:06.260Z,5.43
2018-10-05T10:16:41.084Z,11.83
2018-10-05T10:19:14.904Z,4.83
2018-10-05T10:21:48.974Z,6.77
2018-10-05T10:24:22.772Z,3.53
2018-10-05T10:26:57.899Z,11.83
2018-10-05T10:29:32.594Z,5.47
2018-10-05T10:32:06.644Z,5.63
2018-10-05T10:34:41.601Z,3.00
2018-10-05T10:37:16.032Z,3.53
2018-10-05T10:39:50.121Z,3.10
2018-10-05T10:42:25.060Z,6.37
2018-10-05T10:44:58.901Z,4.40
2018-10-05T10:47:32.758Z,2.67
2018-10-05T10:50:06.766Z,3.47
2018-10-05T10:52:40.726Z,5.97
2018-10-05T10:55:14.788Z,5.23
2018-10-05T10:57:48.824Z,3.47
2018-10-05T11:00:23.182Z,2.73
2018-10-05T11:02:57.647Z,1.80
2018-10-05T11:05:32.538Z,8.03
2018-10-05T11:08:07.050Z,3.23
2018-10-05T11:10:41.000Z,1.70
2018-10-05T11:13:14.964Z,4.53
2018-10-05T11:15:48.821Z,4.07
2018-10-05T11:18:23.515Z,4.97
2018-10-05T11:20:57.688Z,2.60
2018-10-05T11:23:32.057Z,3.40
2018-10-05T11:26:05.836Z,2.47
2018-10-05T11:28:39.630Z,2.33
2018-10-05T11:31:14.397Z,1.50
2018-10-05T11:33:49.018Z,2.83
2018-10-05T11:36:23.046Z,2.20
2018-10-05T11:38:56.928Z,4.80
2018-10-05T11:41:31.114Z,2.70
2018-10-05T11:44:05.712Z,4.47
2018-10-05T11:46:39.792Z,4.77
2018-10-05T11:49:13.686Z,3.03
2018-10-05T11:51:48.038Z,6.17
2018-10-05T11:54:22.718Z,1.97
2018-10-05T11:56:56.687Z,4.30
2018-10-05T11:59:31.294Z,2.73
2018-10-05T12:02:05.162Z,3.00
2018-10-05T12:04:39.014Z,2.17
2018-10-05T12:07:12.924Z,2.83
2018-10-05T12:09:46.778Z,2.17
2018-10-05T12:12:20.663Z,1.70
2018-10-05T12:14:54.621Z,2.60
2018-10-05T12:17:29.817Z,1.90
2018-10-05T12:20:05.051Z,2.00
2018-10-05T12:22:38.984Z,1.57
2018-10-05T12:25:13.216Z,2.23
2018-10-05T12:27:48.211Z,3.57
2018-10-05T12:30:23.059Z,0.80
2018-10-05T12:32:56.758Z,1.33
2018-10-05T12:35:30.803Z,3.07
2018-10-05T12:38:04.678Z,4.17
2018-10-05T12:40:39.392Z,2.70
2018-10-05T12:43:13.862Z,3.30
2018-10-05T12:45:47.737Z,0.53
2018-10-05T12:48:21.635Z,1.77
2018-10-05T12:50:55.614Z,1.50
2018-10-05T12:53:29.451Z,1.83
2018-10-05T12:56:03.401Z,1.50
2018-10-05T12:58:37.686Z,2.07
2018-10-05T13:01:11.630Z,1.97
2018-10-05T13:03:45.531Z,0.90
2018-10-05T13:06:19.546Z,3.93
2018-10-05T13:08:53.358Z,1.10
2018-10-05T13:11:27.349Z,0.80
2018-10-05T13:14:02.302Z,1.13
2018-10-05T13:16:36.742Z,0.97
2018-10-05T13:19:10.528Z,0.53
2018-10-05T13:21:44.484Z,1.13
2018-10-05T13:24:19.275Z,2.50
2018-10-05T13:26:53.219Z,0.33
2018-10-05T13:29:27.196Z,0.30
2018-10-05T13:32:01.243Z,0.83
2018-10-05T13:34:36.274Z,0.40
2018-10-05T13:37:10.392Z,3.93
2018-10-05T13:39:44.401Z,0.73
2018-10-05T13:42:18.208Z,0.60
2018-10-05T13:44:52.300Z,2.30
2018-10-05T13:47:26.428Z,1.53
2018-10-05T13:50:00.395Z,0.60
2018-10-05T13:52:35.212Z,2.00
2018-10-05T13:55:09.888Z,1.07
2018-10-05T13:57:43.863Z,1.80
2018-10-05T14:00:17.926Z,0.87
2018-10-05T14:02:51.986Z,0.37
2018-10-05T14:05:27.135Z,1.70
2018-10-05T14:08:01.996Z,1.30
2018-10-05T14:10:45.698Z,1.27
2018-10-05T14:13:20.455Z,2.37
2018-10-05T14:15:54.743Z,3.50
2018-10-05T14:18:28.964Z,1.40
2018-10-05T14:21:03.334Z,2.20
2018-10-05T14:23:41.198Z,1.33
2018-10-05T14:49:04.507Z,1.70
2018-10-05T14:51:38.591Z,3.97
2018-10-05T14:54:12.436Z,2.23
2018-10-05T14:56:46.427Z,3.27
2018-10-05T14:59:20.326Z,1.40
2018-10-05T15:01:54.452Z,3.90
2018-10-05T15:04:28.296Z,2.97
2018-10-05T15:07:02.323Z,3.43
2018-10-05T15:09:36.532Z,3.00
2018-10-05T15:12:10.494Z,3.87
2018-10-05T15:14:44.598Z,2.20
2018-10-05T15:17:18.691Z,1.83
2018-10-05T15:19:56.709Z,3.77
2018-10-05T15:22:30.767Z,3.20
2018-10-05T15:25:05.754Z,3.27
2018-10-05T15:27:45.518Z,4.13
2018-10-05T15:30:19.669Z,7.10
2018-10-05T15:32:53.840Z,4.13
2018-10-05T15:35:29.171Z,7.60
2018-10-05T15:42:23.242Z,2.90
2018-10-05T15:45:03.523Z,4.60
2018-10-05T15:47:38.150Z,4.43
2018-10-05T15:50:13.171Z,3.97
2018-10-05T15:52:47.850Z,3.40
2018-10-05T15:55:21.737Z,4.87
2018-10-05T15:57:56.428Z,6.43
2018-10-05T16:00:31.391Z,2.20
2018-10-05T16:03:05.597Z,3.07
2018-10-05T16:05:41.014Z,4.00
2018-10-05T16:08:14.908Z,1.70
2018-10-05T16:10:49.236Z,4.63
2018-10-05T16:13:26.042Z,4.03
2018-10-05T16:16:07.078Z,1.87
2018-10-05T16:21:42.281Z,2.70
2018-10-05T16:30:33.830Z,3.40
2018-10-05T16:33:26.443Z,2.47
2018-10-05T16:36:00.410Z,3.43
2018-10-05T16:38:35.135Z,2.97
2018-10-05T16:41:09.303Z,2.47
2018-10-05T16:43:43.919Z,3.23
2018-10-05T17:00:03.723Z,3.30
2018-10-05T17:02:38.028Z,3.03
2018-10-05T17:10:56.446Z,3.83
2018-10-05T17:13:34.912Z,4.47
2018-10-05T17:19:32.996Z,3.03
2018-10-05T17:30:46.455Z,4.77
2018-10-05T17:33:22.862Z,3.27
2018-10-05T17:36:04.810Z,3.10
2018-10-05T17:47:23.149Z,5.57
2018-10-05T17:52:58.014Z,3.53
2018-10-05T17:55:36.604Z,3.47
2018-10-05T17:58:59.425Z,3.90
2018-10-05T18:13:33.139Z,4.30
2018-10-05T18:19:43.483Z,6.57
2018-10-05T18:22:31.962Z,4.33
2018-10-05T18:37:04.301Z,5.80
2018-10-05T18:39:39.036Z,4.80
2018-10-05T18:55:54.526Z,6.90
2018-10-05T18:58:28.589Z,6.03
2018-10-05T19:01:03.354Z,6.77
2018-10-05T19:03:37.401Z,6.67
2018-10-05T19:06:13.062Z,5.90
2018-10-05T19:08:53.029Z,4.07
2018-10-05T19:34:15.885Z,3.57
2018-10-05T19:39:43.632Z,3.57
2018-10-05T19:42:17.569Z,5.37
2018-10-05T19:44:51.375Z,4.23
2018-10-05T19:47:25.411Z,6.80
2018-10-05T19:49:59.371Z,7.50
2018-10-05T19:52:33.512Z,6.60
2018-10-05T19:55:07.443Z,4.13
2018-10-05T19:57:41.547Z,9.47
2018-10-05T20:00:15.662Z,6.93
2018-10-05T20:02:49.678Z,6.63
2018-10-05T20:05:23.951Z,3.93
2018-10-05T20:07:57.890Z,6.13
2018-10-05T20:10:32.093Z,6.53
2018-10-05T20:13:06.171Z,7.87
2018-10-05T20:15:40.306Z,3.47
2018-10-05T20:18:15.917Z,5.83
2018-10-05T20:20:50.611Z,4.80
2018-10-05T20:23:24.532Z,7.90
2018-10-05T20:25:58.561Z,6.10
2018-10-05T20:28:32.568Z,6.03
2018-10-05T20:31:06.459Z,7.53
2018-10-05T20:33:40.372Z,4.53
2018-10-05T20:36:16.555Z,5.00
2018-10-05T20:39:01.704Z,5.77
2018-10-05T20:50:25.551Z,3.93
2018-10-05T20:53:00.620Z,7.67
2018-10-05T20:55:34.916Z,4.50
2018-10-05T20:58:09.371Z,4.83
2018-10-05T21:00:47.989Z,3.93
2018-10-05T21:03:37.965Z,5.83
2018-10-05T21:06:15.253Z,4.57
2018-10-05T21:08:49.257Z,5.13
2018-10-05T21:14:10.979Z,6.57
2018-10-05T21:16:48.777Z,7.20
2018-10-05T21:19:23.933Z,6.53
2018-10-05T21:21:58.737Z,9.07
2018-10-05T21:24:34.488Z,4.47
2018-10-05T21:28:12.952Z,5.97
2018-10-05T21:30:54.432Z,4.50
2018-10-05T21:33:39.964Z,3.93
2018-10-05T21:36:14.630Z,5.33
2018-10-05T21:38:54.929Z,7.17
2018-10-05T21:41:35.192Z,7.13
2018-10-05T21:50:22.905Z,5.87
2018-10-05T21:52:58.269Z,8.33
2018-10-05T21:55:36.464Z,8.23
2018-10-05T21:58:10.846Z,5.63
2018-10-05T22:00:47.032Z,4.07
2018-10-05T22:08:45.965Z,6.40
2018-10-05T22:16:57.839Z,5.40
2018-10-05T22:19:31.816Z,7.47
2018-10-05T22:22:06.097Z,6.47
2018-10-05T22:24:43.482Z,7.43
2018-10-05T22:27:34.802Z,9.10
2018-10-05T22:30:10.005Z,8.47
2018-10-05T22:32:44.384Z,7.23
2018-10-05T22:35:18.368Z,6.50
2018-10-05T22:37:53.101Z,9.27
2018-10-05T22:43:23.248Z,8.27
2018-10-05T22:45:58.132Z,6.80
2018-10-05T22:48:34.406Z,6.67
2018-10-05T22:51:09.673Z,5.47
2018-10-05T22:53:47.089Z,7.53
2018-10-05T22:59:31.207Z,9.30
2018-10-05T23:02:10.118Z,8.93
2018-10-05T23:04:44.398Z,7.20
2018-10-05T23:07:20.041Z,6.93
2018-10-05T23:09:54.681Z,7.10
2018-10-05T23:12:28.768Z,10.00
2018-10-05T23:15:03.878Z,7.70
2018-10-05T23:17:38.253Z,8.10
2018-10-05T23:20:12.487Z,11.93
2018-10-05T23:23:06.209Z,8.87
2018-10-05T23:25:48.855Z,8.10
2018-10-05T23:28:34.207Z,7.10
2018-10-05T23:31:08.501Z,12.80
2018-10-05T23:36:46.446Z,8.03
2018-10-05T23:39:25.606Z,10.43
2018-10-05T23:41:59.893Z,8.80
2018-10-05T23:44:34.709Z,8.60
2018-10-05T23:47:10.181Z,9.33
2018-10-05T23:49:44.142Z,8.00
2018-10-05T23:52:24.754Z,9.77
2018-10-05T23:54:59.237Z,8.37
2018-10-05T23:57:33.944Z,9.90
